Time;durP1;ratioP1;P1;durP2;ratioP2;P2;SDS_P1;SDS_P2;PMS_P1;PMS_P2;Temp;Humidity;BMP_temperature;BMP_pressure;BME280_temperature;BME280_humidity;BME280_pressure;Samples;Min_cycle;Max_cycle;Signal;HPM_P1;HPM_P2
2021/05/27 00:00:10;;;;;;;0.88;0.52;;;;;;;;;;5075499;28;20031;-67
2021/05/27 00:02:35;;;;;;;1.23;0.60;;;;;;;;;;5070653;28;20024;-67
2021/05/27 00:05:01;;;;;;;0.98;0.63;;;;;;;;;;5070846;28;20047;-65
2021/05/27 00:07:26;;;;;;;1.73;0.90;;;;;;;;;;5069051;28;20386;-66
2021/05/27 00:09:51;;;;;;;2.17;0.50;;;;;;;;;;5071548;28;20016;-65
2021/05/27 00:12:17;;;;;;;1.15;0.98;;;;;;;;;;5071328;28;20027;-67
2021/05/27 00:14:42;;;;;;;1.58;0.88;;;;;;;;;;5071059;28;20012;-66
2021/05/27 00:17:07;;;;;;;1.20;0.80;;;;;;;;;;5068107;28;20214;-66
2021/05/27 00:19:32;;;;;;;1.55;0.98;;;;;;;;;;5071125;28;20383;-66
2021/05/27 00:21:57;;;;;;;1.55;0.82;;;;;;;;;;5068361;28;20013;-66
2021/05/27 00:24:23;;;;;;;1.00;0.90;;;;;;;;;;5069941;28;20094;-66
2021/05/27 00:26:48;;;;;;;0.70;0.60;;;;;;;;;;5068578;28;20415;-66
2021/05/27 00:29:13;;;;;;;1.75;0.80;;;;;;;;;;5070605;28;20028;-66
2021/05/27 00:31:38;;;;;;;0.90;0.57;;;;;;;;;;5070890;28;20021;-67
2021/05/27 00:34:04;;;;;;;1.55;0.90;;;;;;;;;;5070211;28;20044;-67
2021/05/27 00:36:29;;;;;;;2.15;1.00;;;;;;;;;;5069327;28;20517;-67
2021/05/27 00:38:55;;;;;;;1.20;1.10;;;;;;;;;;5068679;28;20041;-67
2021/05/27 00:41:20;;;;;;;2.40;1.58;;;;;;;;;;5071277;28;20051;-66
2021/05/27 00:43:45;;;;;;;1.40;1.30;;;;;;;;;;5069553;28;20036;-67
2021/05/27 00:46:10;;;;;;;2.42;1.75;;;;;;;;;;5069685;28;20468;-65
2021/05/27 00:49:18;;;;;;;2.03;1.83;;;;;;;;;;5067991;28;20029;-67
2021/05/27 00:51:27;;;;;;;2.03;1.55;;;;;;;;;;5069342;28;20403;-67
2021/05/27 00:53:53;;;;;;;1.58;1.48;;;;;;;;;;5069208;28;20484;-66
2021/05/27 00:56:18;;;;;;;1.95;1.63;;;;;;;;;;5069316;28;20051;-66
2021/05/27 00:58:44;;;;;;;3.55;1.83;;;;;;;;;;5067421;28;20020;-66
2021/05/27 01:01:10;;;;;;;1.45;1.35;;;;;;;;;;5068809;28;20105;-64
2021/05/27 01:03:35;;;;;;;2.88;1.92;;;;;;;;;;5072078;28;20032;-66
2021/05/27 01:06:00;;;;;;;3.47;2.63;;;;;;;;;;5070560;28;20024;-66
2021/05/27 01:08:26;;;;;;;2.78;2.58;;;;;;;;;;5070023;28;20023;-66
2021/05/27 01:10:51;;;;;;;2.70;2.08;;;;;;;;;;5073469;28;20553;-65
2021/05/27 01:13:19;;;;;;;1.85;1.65;;;;;;;;;;5074633;28;20494;-66
2021/05/27 01:15:45;;;;;;;2.50;2.08;;;;;;;;;;5072880;28;20032;-64
2021/05/27 01:18:15;;;;;;;2.75;2.20;;;;;;;;;;5065613;28;20025;-65
2021/05/27 01:20:42;;;;;;;2.35;1.85;;;;;;;;;;5072598;28;20070;-66
2021/05/27 01:23:09;;;;;;;2.65;2.45;;;;;;;;;;5072877;28;20021;-66
2021/05/27 01:25:35;;;;;;;2.35;2.15;;;;;;;;;;5067123;28;20021;-66
2021/05/27 01:28:01;;;;;;;3.10;2.67;;;;;;;;;;5066072;28;20383;-66
2021/05/27 01:30:26;;;;;;;3.28;2.95;;;;;;;;;;5067986;28;20024;-66
2021/05/27 01:32:51;;;;;;;4.18;2.67;;;;;;;;;;5069613;28;20488;-66
2021/05/27 01:35:18;;;;;;;3.15;2.40;;;;;;;;;;5068842;28;20440;-66
2021/05/27 01:37:43;;;;;;;2.22;2.03;;;;;;;;;;5098752;28;20067;-66
2021/05/27 01:40:09;;;;;;;2.67;2.47;;;;;;;;;;5069780;28;20158;-66
2021/05/27 01:42:34;;;;;;;6.32;3.33;;;;;;;;;;5068509;28;20529;-67
2021/05/27 01:44:59;;;;;;;4.40;3.63;;;;;;;;;;5069510;28;20025;-65
2021/05/27 01:47:25;;;;;;;4.45;3.10;;;;;;;;;;5063155;28;20403;-66
2021/05/27 01:49:50;;;;;;;2.65;1.75;;;;;;;;;;5069862;28;20139;-65
2021/05/27 01:52:15;;;;;;;3.45;3.00;;;;;;;;;;5070008;28;20042;-66
2021/05/27 01:54:40;;;;;;;3.40;2.55;;;;;;;;;;5068829;28;20021;-64
2021/05/27 01:57:06;;;;;;;5.57;2.72;;;;;;;;;;5065104;28;20023;-66
2021/05/27 01:59:31;;;;;;;3.65;2.70;;;;;;;;;;5101332;28;20082;-66
2021/05/27 02:01:56;;;;;;;2.13;1.85;;;;;;;;;;5069078;28;20056;-66
2021/05/27 02:04:22;;;;;;;4.15;2.97;;;;;;;;;;5068727;28;20070;-66
2021/05/27 02:06:47;;;;;;;2.05;1.67;;;;;;;;;;5066520;28;20111;-66
2021/05/27 02:09:12;;;;;;;3.40;3.10;;;;;;;;;;5068835;28;20032;-66
2021/05/27 02:11:41;;;;;;;3.00;2.70;;;;;;;;;;5069192;28;20032;-66
2021/05/27 02:14:07;;;;;;;4.43;4.07;;;;;;;;;;5072946;28;20044;-66
2021/05/27 02:16:33;;;;;;;4.88;4.07;;;;;;;;;;5068831;28;20495;-66
2021/05/27 02:18:58;;;;;;;4.45;4.13;;;;;;;;;;5069525;28;20024;-66
2021/05/27 02:21:23;;;;;;;4.20;3.75;;;;;;;;;;5071839;28;20039;-66
2021/05/27 02:23:51;;;;;;;4.60;4.15;;;;;;;;;;5070101;28;20028;-63
2021/05/27 02:26:16;;;;;;;4.72;4.32;;;;;;;;;;5069968;28;20060;-66
2021/05/27 02:28:41;;;;;;;4.40;4.00;;;;;;;;;;5065222;28;20106;-65
2021/05/27 02:31:07;;;;;;;3.75;3.45;;;;;;;;;;5065848;28;20052;-66
2021/05/27 02:33:33;;;;;;;5.18;4.68;;;;;;;;;;5069177;28;20105;-66
2021/05/27 02:35:58;;;;;;;5.15;3.38;;;;;;;;;;5067438;28;20013;-66
2021/05/27 02:38:23;;;;;;;4.38;3.42;;;;;;;;;;5064778;28;20052;-67
2021/05/27 02:40:48;;;;;;;4.53;4.13;;;;;;;;;;5066880;28;20460;-65
2021/05/27 02:43:14;;;;;;;4.20;3.88;;;;;;;;;;5069246;28;20432;-64
2021/05/27 02:45:39;;;;;;;4.28;3.90;;;;;;;;;;5068136;28;20024;-66
2021/05/27 02:48:04;;;;;;;4.20;3.83;;;;;;;;;;5067249;28;20471;-65
2021/05/27 02:50:30;;;;;;;4.53;4.13;;;;;;;;;;5067770;28;20117;-66
2021/05/27 02:52:55;;;;;;;4.63;4.22;;;;;;;;;;5065875;28;20028;-65
2021/05/27 02:55:20;;;;;;;5.10;4.47;;;;;;;;;;5068829;28;20040;-66
2021/05/27 02:57:45;;;;;;;2.70;2.30;;;;;;;;;;5064398;28;20100;-66
2021/05/27 03:00:11;;;;;;;5.43;4.93;;;;;;;;;;5066364;28;20081;-66
2021/05/27 03:02:36;;;;;;;4.78;4.40;;;;;;;;;;5067672;28;20020;-66
2021/05/27 03:05:02;;;;;;;4.05;3.65;;;;;;;;;;5067164;28;20111;-66
2021/05/27 03:07:27;;;;;;;5.45;4.22;;;;;;;;;;5064981;28;20078;-66
2021/05/27 03:09:52;;;;;;;4.57;4.15;;;;;;;;;;5067586;28;20546;-65
2021/05/27 03:12:18;;;;;;;4.38;3.92;;;;;;;;;;5099837;28;20027;-66
2021/05/27 03:14:43;;;;;;;3.70;3.40;;;;;;;;;;5067534;28;20115;-66
2021/05/27 03:17:08;;;;;;;4.47;4.07;;;;;;;;;;5064677;28;20021;-66
2021/05/27 03:19:33;;;;;;;4.88;4.47;;;;;;;;;;5065472;28;20032;-65
2021/05/27 03:21:58;;;;;;;3.75;2.47;;;;;;;;;;5069368;28;20052;-66
2021/05/27 03:24:24;;;;;;;4.82;4.25;;;;;;;;;;5068889;28;20442;-67
2021/05/27 03:26:51;;;;;;;3.95;3.65;;;;;;;;;;5067983;28;20488;-65
2021/05/27 03:29:17;;;;;;;2.70;2.50;;;;;;;;;;5068335;28;20028;-67
2021/05/27 03:31:43;;;;;;;4.25;3.53;;;;;;;;;;5070002;28;20085;-67
2021/05/27 03:34:08;;;;;;;3.88;3.58;;;;;;;;;;5070987;28;20031;-65
2021/05/27 03:36:33;;;;;;;4.88;3.83;;;;;;;;;;5069764;28;20476;-67
2021/05/27 03:38:58;;;;;;;3.28;2.40;;;;;;;;;;5066679;28;20454;-67
2021/05/27 03:41:24;;;;;;;3.50;2.65;;;;;;;;;;5067969;28;20021;-66
2021/05/27 03:43:49;;;;;;;3.60;3.30;;;;;;;;;;5068664;28;20032;-66
2021/05/27 03:46:14;;;;;;;4.05;3.47;;;;;;;;;;5064656;28;20025;-67
2021/05/27 03:48:39;;;;;;;7.13;3.80;;;;;;;;;;5066060;28;20024;-67
2021/05/27 03:51:05;;;;;;;4.78;3.78;;;;;;;;;;5067613;28;20028;-66
2021/05/27 03:53:30;;;;;;;2.60;1.45;;;;;;;;;;5067045;28;20021;-67
2021/05/27 03:55:55;;;;;;;4.32;3.65;;;;;;;;;;5066742;28;20021;-65
2021/05/27 04:01:04;;;;;;;4.43;3.38;;;;;;;;;;5067522;28;20020;-67
2021/05/27 04:07:06;;;;;;;4.93;3.65;;;;;;;;;;5066535;28;20657;-67
2021/05/27 04:08:59;;;;;;;4.40;2.85;;;;;;;;;;5064981;28;20492;-67
2021/05/27 04:11:24;;;;;;;4.57;3.13;;;;;;;;;;5067189;28;20020;-66
2021/05/27 04:13:49;;;;;;;4.20;3.35;;;;;;;;;;5067727;28;20016;-66
2021/05/27 04:16:14;;;;;;;6.05;3.45;;;;;;;;;;5066277;28;20024;-67
2021/05/27 04:18:40;;;;;;;3.95;3.00;;;;;;;;;;5063985;28;20021;-66
2021/05/27 04:21:05;;;;;;;4.20;2.95;;;;;;;;;;5067337;28;20013;-66
2021/05/27 04:23:33;;;;;;;3.75;3.03;;;;;;;;;;5067873;28;20468;-67
2021/05/27 04:26:06;;;;;;;2.83;2.50;;;;;;;;;;5065517;28;20077;-66
2021/05/27 04:28:32;;;;;;;2.22;1.48;;;;;;;;;;5063740;28;20391;-66
2021/05/27 04:31:10;;;;;;;3.45;3.00;;;;;;;;;;5067073;28;20016;-66
2021/05/27 04:33:39;;;;;;;2.35;2.10;;;;;;;;;;5067075;28;20046;-66
2021/05/27 04:36:05;;;;;;;3.58;1.98;;;;;;;;;;5070217;28;20028;-66
2021/05/27 04:38:30;;;;;;;3.40;2.10;;;;;;;;;;5067049;28;20044;-66
2021/05/27 04:40:55;;;;;;;3.42;2.47;;;;;;;;;;5070695;28;20023;-67
2021/05/27 04:43:21;;;;;;;3.97;1.55;;;;;;;;;;5072183;28;20021;-65
2021/05/27 04:45:46;;;;;;;3.97;2.65;;;;;;;;;;5070060;28;20024;-67
2021/05/27 04:48:13;;;;;;;2.92;2.65;;;;;;;;;;5068979;28;20055;-65
2021/05/27 04:50:39;;;;;;;3.08;2.78;;;;;;;;;;5070104;28;20110;-66
2021/05/27 04:53:04;;;;;;;4.25;2.70;;;;;;;;;;5072249;28;20349;-66
2021/05/27 04:55:30;;;;;;;3.58;2.33;;;;;;;;;;5070586;28;20515;-66
2021/05/27 04:57:55;;;;;;;4.65;2.78;;;;;;;;;;5068155;28;20028;-67
2021/05/27 05:00:21;;;;;;;1.48;1.20;;;;;;;;;;5068107;28;20356;-66
2021/05/27 05:02:46;;;;;;;3.05;2.75;;;;;;;;;;5071375;28;20079;-66
2021/05/27 05:05:13;;;;;;;4.65;2.72;;;;;;;;;;5070525;28;20040;-66
2021/05/27 05:07:39;;;;;;;4.53;2.50;;;;;;;;;;5066185;28;20024;-66
2021/05/27 05:10:04;;;;;;;3.08;2.78;;;;;;;;;;5067498;28;20154;-66
2021/05/27 05:12:29;;;;;;;3.53;2.45;;;;;;;;;;5068896;28;20089;-67
2021/05/27 05:14:55;;;;;;;3.55;3.15;;;;;;;;;;5069051;28;20048;-64
2021/05/27 05:17:20;;;;;;;2.58;2.22;;;;;;;;;;5066124;28;20714;-65
2021/05/27 05:19:45;;;;;;;2.55;2.35;;;;;;;;;;5068441;28;20052;-66
2021/05/27 05:22:10;;;;;;;3.80;1.80;;;;;;;;;;5069754;28;20028;-65
2021/05/27 05:24:36;;;;;;;4.35;1.63;;;;;;;;;;5069819;28;20107;-65
2021/05/27 05:27:02;;;;;;;1.88;1.55;;;;;;;;;;5068506;28;20515;-66
2021/05/27 05:29:27;;;;;;;2.78;1.23;;;;;;;;;;5069702;28;20103;-66
2021/05/27 05:31:52;;;;;;;2.88;2.63;;;;;;;;;;5069507;28;20120;-65
2021/05/27 05:34:18;;;;;;;1.88;1.40;;;;;;;;;;5072202;28;20017;-65
2021/05/27 05:36:43;;;;;;;4.13;2.80;;;;;;;;;;5068385;28;20016;-64
2021/05/27 05:39:08;;;;;;;3.17;2.85;;;;;;;;;;5072713;28;20024;-64
2021/05/27 05:41:33;;;;;;;2.33;1.40;;;;;;;;;;5068698;28;20081;-66
2021/05/27 05:43:59;;;;;;;3.15;2.25;;;;;;;;;;5057159;28;20111;-65
2021/05/27 05:46:25;;;;;;;2.83;1.75;;;;;;;;;;5070217;28;20028;-64
2021/05/27 05:48:50;;;;;;;5.03;3.05;;;;;;;;;;5065460;28;20052;-64
2021/05/27 05:51:15;;;;;;;1.83;1.50;;;;;;;;;;5069483;28;20480;-65
2021/05/27 05:53:40;;;;;;;2.97;2.60;;;;;;;;;;5068562;28;20032;-64
2021/05/27 05:56:06;;;;;;;2.33;2.10;;;;;;;;;;5068385;28;20036;-65
2021/05/27 05:58:31;;;;;;;3.75;3.00;;;;;;;;;;5067484;28;20052;-65
2021/05/27 06:00:57;;;;;;;2.50;1.88;;;;;;;;;;5068153;28;20027;-65
2021/05/27 06:03:22;;;;;;;2.78;2.58;;;;;;;;;;5070342;28;20017;-65
2021/05/27 06:05:47;;;;;;;3.92;3.00;;;;;;;;;;5057864;28;20392;-64
2021/05/27 06:08:13;;;;;;;4.10;3.22;;;;;;;;;;5101891;28;20070;-65
2021/05/27 06:10:38;;;;;;;3.20;1.70;;;;;;;;;;5071098;28;20029;-65
2021/05/27 06:13:04;;;;;;;4.22;2.75;;;;;;;;;;5071848;28;20063;-66
2021/05/27 06:15:29;;;;;;;3.70;2.80;;;;;;;;;;5071899;28;20023;-66
2021/05/27 06:17:55;;;;;;;3.50;2.25;;;;;;;;;;5069749;28;20025;-66
2021/05/27 06:20:21;;;;;;;3.13;2.80;;;;;;;;;;5070929;28;20132;-66
2021/05/27 06:22:46;;;;;;;3.40;2.40;;;;;;;;;;5072317;28;20574;-66
2021/05/27 06:25:12;;;;;;;3.05;2.50;;;;;;;;;;5072370;28;20047;-66
2021/05/27 06:27:37;;;;;;;3.88;2.67;;;;;;;;;;5067827;28;20024;-66
2021/05/27 06:30:03;;;;;;;4.13;2.63;;;;;;;;;;5072246;28;20034;-66
2021/05/27 06:32:31;;;;;;;5.43;3.08;;;;;;;;;;5070978;28;20486;-66
2021/05/27 06:34:56;;;;;;;4.82;3.05;;;;;;;;;;5071092;28;20031;-66
2021/05/27 06:37:21;;;;;;;3.97;3.05;;;;;;;;;;5065450;28;20033;-66
2021/05/27 06:39:46;;;;;;;3.55;3.25;;;;;;;;;;5067999;28;20517;-66
2021/05/27 06:42:13;;;;;;;5.63;3.60;;;;;;;;;;5067752;28;20017;-66
2021/05/27 06:44:38;;;;;;;3.17;2.88;;;;;;;;;;5068950;28;20032;-66
2021/05/27 06:47:04;;;;;;;5.07;2.58;;;;;;;;;;5065361;28;20112;-65
2021/05/27 06:49:29;;;;;;;4.72;2.95;;;;;;;;;;5069429;28;20028;-65
2021/05/27 06:51:56;;;;;;;2.85;2.33;;;;;;;;;;5065533;28;20032;-65
2021/05/27 06:54:22;;;;;;;2.90;2.60;;;;;;;;;;5068481;28;20100;-65
2021/05/27 06:56:47;;;;;;;3.92;3.20;;;;;;;;;;5063445;28;20510;-66
2021/05/27 06:59:12;;;;;;;4.55;3.22;;;;;;;;;;5068655;28;20021;-64
2021/05/27 07:01:38;;;;;;;4.45;4.05;;;;;;;;;;5068016;28;20032;-64
2021/05/27 07:04:03;;;;;;;3.42;3.10;;;;;;;;;;5067862;28;20025;-65
2021/05/27 07:06:28;;;;;;;3.67;2.83;;;;;;;;;;5066066;28;20055;-65
2021/05/27 07:08:53;;;;;;;1.58;1.48;;;;;;;;;;5066434;28;20107;-64
2021/05/27 07:11:18;;;;;;;4.85;4.32;;;;;;;;;;5063728;28;20044;-64
2021/05/27 07:13:44;;;;;;;6.28;3.63;;;;;;;;;;5068150;28;20012;-63
2021/05/27 07:16:09;;;;;;;3.55;1.92;;;;;;;;;;5068549;28;20036;-64
2021/05/27 07:18:34;;;;;;;3.47;3.08;;;;;;;;;;5066472;28;20109;-64
2021/05/27 07:20:59;;;;;;;2.30;2.10;;;;;;;;;;5068020;28;20017;-64
2021/05/27 07:23:25;;;;;;;2.90;2.30;;;;;;;;;;5064930;28;20024;-64
2021/05/27 07:25:50;;;;;;;4.07;3.40;;;;;;;;;;5063547;28;20021;-64
2021/05/27 07:28:15;;;;;;;3.50;2.85;;;;;;;;;;5060366;28;20021;-64
2021/05/27 07:30:41;;;;;;;3.72;3.42;;;;;;;;;;5063266;28;20024;-65
2021/05/27 07:33:06;;;;;;;5.07;2.65;;;;;;;;;;5065799;28;20037;-66
2021/05/27 07:35:31;;;;;;;3.22;2.70;;;;;;;;;;5066471;28;20026;-64
2021/05/27 07:37:57;;;;;;;2.47;1.13;;;;;;;;;;5065305;28;20113;-64
2021/05/27 07:40:23;;;;;;;1.63;1.52;;;;;;;;;;5070527;28;20032;-64
2021/05/27 07:42:48;;;;;;;1.60;0.57;;;;;;;;;;5067137;28;20391;-64
2021/05/27 07:45:15;;;;;;;2.72;1.40;;;;;;;;;;5071363;28;20055;-63
2021/05/27 07:47:41;;;;;;;3.03;1.50;;;;;;;;;;5071357;28;20449;-64
2021/05/27 07:50:07;;;;;;;3.50;1.38;;;;;;;;;;5083906;28;20115;-65
2021/05/27 07:52:33;;;;;;;1.40;1.25;;;;;;;;;;5082952;28;20056;-66
2021/05/27 07:54:58;;;;;;;2.38;1.30;;;;;;;;;;5077057;28;20487;-64
2021/05/27 07:57:23;;;;;;;2.95;1.20;;;;;;;;;;5060510;28;20029;-65
2021/05/27 07:59:49;;;;;;;1.90;1.25;;;;;;;;;;5074650;28;20168;-64
2021/05/27 08:02:14;;;;;;;1.20;1.10;;;;;;;;;;5071344;28;20099;-65
2021/05/27 08:04:42;;;;;;;1.98;1.50;;;;;;;;;;5058880;28;20171;-65
2021/05/27 08:07:07;;;;;;;2.00;1.80;;;;;;;;;;5049049;28;20526;-65
2021/05/27 08:09:33;;;;;;;1.95;1.25;;;;;;;;;;5083556;28;20035;-65
2021/05/27 08:11:58;;;;;;;2.80;1.52;;;;;;;;;;5091567;28;20031;-65
2021/05/27 08:14:23;;;;;;;1.63;1.40;;;;;;;;;;5119617;28;20020;-65
2021/05/27 08:16:48;;;;;;;2.22;1.83;;;;;;;;;;5061062;28;20312;-65
2021/05/27 08:19:14;;;;;;;3.08;1.52;;;;;;;;;;5085412;28;20107;-65
2021/05/27 08:21:39;;;;;;;3.67;1.17;;;;;;;;;;5062700;28;20083;-65
2021/05/27 08:24:05;;;;;;;3.13;2.50;;;;;;;;;;5062219;28;20123;-65
2021/05/27 08:26:30;;;;;;;2.10;1.95;;;;;;;;;;5090536;28;20027;-66
2021/05/27 08:28:55;;;;;;;2.22;2.03;;;;;;;;;;5073405;28;20051;-65
2021/05/27 08:31:21;;;;;;;2.50;2.30;;;;;;;;;;5079808;28;20025;-65
2021/05/27 08:33:48;;;;;;;2.28;1.90;;;;;;;;;;5075049;28;20027;-65
2021/05/27 08:36:13;;;;;;;3.97;1.60;;;;;;;;;;5086514;28;20023;-65
2021/05/27 08:38:39;;;;;;;2.65;2.45;;;;;;;;;;5065580;28;20045;-65
2021/05/27 08:41:04;;;;;;;3.05;2.63;;;;;;;;;;5085259;28;20032;-65
2021/05/27 08:43:32;;;;;;;1.38;1.27;;;;;;;;;;5074268;28;20467;-65
2021/05/27 08:45:57;;;;;;;1.67;1.17;;;;;;;;;;5074653;28;20056;-64
2021/05/27 08:48:23;;;;;;;3.33;1.60;;;;;;;;;;5079216;28;20043;-64
2021/05/27 08:50:48;;;;;;;2.42;1.30;;;;;;;;;;5073030;28;20042;-64
2021/05/27 08:53:18;;;;;;;2.95;2.05;;;;;;;;;;5080721;28;20056;-64
2021/05/27 08:55:43;;;;;;;0.77;0.70;;;;;;;;;;5074110;28;20093;-64
2021/05/27 08:58:09;;;;;;;2.28;1.42;;;;;;;;;;5085869;28;20059;-65
2021/05/27 09:00:35;;;;;;;2.60;1.40;;;;;;;;;;5079058;28;20032;-64
2021/05/27 09:03:01;;;;;;;2.63;1.33;;;;;;;;;;5085906;28;20433;-64
2021/05/27 09:05:32;;;;;;;1.75;1.30;;;;;;;;;;5072816;28;20021;-64
2021/05/27 09:07:57;;;;;;;2.35;0.82;;;;;;;;;;5058133;28;20016;-64
2021/05/27 09:10:41;;;;;;;2.20;1.70;;;;;;;;;;5073836;28;20020;-64
2021/05/27 09:13:09;;;;;;;2.75;1.17;;;;;;;;;;5065874;28;20016;-64
2021/05/27 09:15:34;;;;;;;1.80;1.00;;;;;;;;;;5074053;28;20021;-64
2021/05/27 09:18:00;;;;;;;2.28;1.08;;;;;;;;;;5071221;28;20016;-64
2021/05/27 09:20:29;;;;;;;2.20;1.20;;;;;;;;;;5072219;28;20017;-64
2021/05/27 09:23:09;;;;;;;2.70;1.10;;;;;;;;;;5075546;28;20548;-64
2021/05/27 09:25:37;;;;;;;2.40;1.25;;;;;;;;;;5065718;28;20025;-64
2021/05/27 09:28:04;;;;;;;1.77;1.30;;;;;;;;;;5068746;28;20418;-64
2021/05/27 09:30:29;;;;;;;1.52;0.90;;;;;;;;;;5066404;28;20108;-64
2021/05/27 09:32:54;;;;;;;0.88;0.70;;;;;;;;;;5082966;28;20103;-64
2021/05/27 09:35:20;;;;;;;1.05;0.70;;;;;;;;;;5073752;28;20008;-63
2021/05/27 09:37:47;;;;;;;0.98;0.50;;;;;;;;;;5069638;28;20049;-64
2021/05/27 09:40:26;;;;;;;1.70;0.70;;;;;;;;;;5079692;28;20046;-64
2021/05/27 09:42:52;;;;;;;3.28;0.80;;;;;;;;;;5079015;28;20698;-63
2021/05/27 09:45:18;;;;;;;1.60;0.88;;;;;;;;;;5073870;28;20099;-64
2021/05/27 09:47:43;;;;;;;3.67;0.68;;;;;;;;;;5075022;28;20074;-64
2021/05/27 09:50:09;;;;;;;0.82;0.50;;;;;;;;;;5092691;28;20118;-64
2021/05/27 09:52:48;;;;;;;1.00;0.25;;;;;;;;;;5082254;28;20468;-64
2021/05/27 09:55:17;;;;;;;1.15;0.70;;;;;;;;;;5053651;28;20021;-64
2021/05/27 09:57:43;;;;;;;0.93;0.52;;;;;;;;;;5065818;28;20107;-64
2021/05/27 10:00:20;;;;;;;1.15;0.40;;;;;;;;;;5070743;28;20031;-64
2021/05/27 10:02:46;;;;;;;0.63;0.40;;;;;;;;;;5072912;28;20476;-64
2021/05/27 10:05:13;;;;;;;0.80;0.80;;;;;;;;;;5073485;28;20066;-64
2021/05/27 10:07:42;;;;;;;1.25;0.50;;;;;;;;;;5068960;28;20040;-64
2021/05/27 10:10:08;;;;;;;3.60;0.40;;;;;;;;;;5071851;28;20020;-64
2021/05/27 10:12:38;;;;;;;1.58;0.50;;;;;;;;;;5104890;27;20467;-63
2021/05/27 10:15:04;;;;;;;2.60;0.60;;;;;;;;;;5072967;28;20020;-64
2021/05/27 10:17:30;;;;;;;2.60;0.40;;;;;;;;;;5069787;28;20020;-64
2021/05/27 10:19:55;;;;;;;0.93;0.60;;;;;;;;;;5070197;28;20047;-64
2021/05/27 10:22:20;;;;;;;1.00;0.32;;;;;;;;;;5066932;28;20039;-65
2021/05/27 10:24:46;;;;;;;2.00;0.45;;;;;;;;;;5069101;28;20024;-64
2021/05/27 10:27:11;;;;;;;0.70;0.50;;;;;;;;;;5062601;28;20020;-64
2021/05/27 10:29:37;;;;;;;0.45;0.30;;;;;;;;;;5070094;28;20013;-64
2021/05/27 10:32:03;;;;;;;1.77;0.52;;;;;;;;;;5070578;28;20017;-65
2021/05/27 10:34:41;;;;;;;2.17;0.80;;;;;;;;;;5070966;28;20013;-64
2021/05/27 10:37:06;;;;;;;0.77;0.60;;;;;;;;;;5064909;28;20182;-65
2021/05/27 10:39:32;;;;;;;1.38;0.55;;;;;;;;;;5069212;28;20547;-65
2021/05/27 10:41:57;;;;;;;1.27;0.50;;;;;;;;;;5073003;28;20024;-64
2021/05/27 10:44:23;;;;;;;1.52;0.50;;;;;;;;;;5066442;28;20046;-63
2021/05/27 10:46:48;;;;;;;0.40;0.40;;;;;;;;;;5068338;28;20027;-65
2021/05/27 10:49:34;;;;;;;0.60;0.50;;;;;;;;;;5071330;28;20052;-64
2021/05/27 10:52:18;;;;;;;0.45;0.35;;;;;;;;;;5071439;28;20027;-65
2021/05/27 10:54:45;;;;;;;1.17;1.00;;;;;;;;;;5070264;28;20527;-64
2021/05/27 10:57:10;;;;;;;0.70;0.57;;;;;;;;;;5064202;28;20020;-64
2021/05/27 10:59:35;;;;;;;2.20;0.60;;;;;;;;;;5068003;28;20043;-65
2021/05/27 11:02:01;;;;;;;0.95;0.80;;;;;;;;;;5077556;28;20016;-64
2021/05/27 11:04:31;;;;;;;0.60;0.50;;;;;;;;;;5090832;28;20468;-65
2021/05/27 11:07:09;;;;;;;0.52;0.52;;;;;;;;;;5088322;28;20011;-65
2021/05/27 11:09:37;;;;;;;0.50;0.43;;;;;;;;;;5077016;28;20085;-64
2021/05/27 11:12:08;;;;;;;2.00;0.90;;;;;;;;;;5066331;28;20028;-65
2021/05/27 11:14:41;;;;;;;0.80;0.70;;;;;;;;;;5070636;28;20035;-64
2021/05/27 11:17:11;;;;;;;1.02;0.75;;;;;;;;;;5068281;28;20016;-66
2021/05/27 11:22:37;;;;;;;0.60;0.40;;;;;;;;;;5071994;28;20028;-65
2021/05/27 11:25:24;;;;;;;1.20;0.60;;;;;;;;;;5066592;28;20261;-65
2021/05/27 11:27:49;;;;;;;0.73;0.70;;;;;;;;;;5063774;28;20020;-65
2021/05/27 11:30:17;;;;;;;0.93;0.77;;;;;;;;;;5074707;28;20031;-65
2021/05/27 11:32:43;;;;;;;2.70;0.73;;;;;;;;;;5069794;28;20024;-64
2021/05/27 11:35:08;;;;;;;1.00;0.90;;;;;;;;;;5068162;28;20379;-64
2021/05/27 11:37:34;;;;;;;1.00;0.77;;;;;;;;;;5068327;28;20388;-64
2021/05/27 11:40:00;;;;;;;2.22;0.70;;;;;;;;;;5071831;28;20052;-64
2021/05/27 11:42:26;;;;;;;1.42;0.50;;;;;;;;;;5075256;28;20038;-65
2021/05/27 11:44:54;;;;;;;0.73;0.68;;;;;;;;;;5074032;28;20023;-63
2021/05/27 11:47:20;;;;;;;0.75;0.75;;;;;;;;;;5077202;28;20020;-64
2021/05/27 11:50:00;;;;;;;1.33;0.90;;;;;;;;;;5086245;28;20555;-64
2021/05/27 11:52:25;;;;;;;1.58;1.02;;;;;;;;;;5077056;28;20012;-63
2021/05/27 11:54:52;;;;;;;1.90;1.00;;;;;;;;;;5075067;28;20103;-64
2021/05/27 11:57:18;;;;;;;1.65;0.88;;;;;;;;;;5076642;28;20013;-64
2021/05/27 11:59:43;;;;;;;1.45;0.70;;;;;;;;;;5080474;28;20458;-66
2021/05/27 12:02:10;;;;;;;1.60;0.88;;;;;;;;;;5075343;28;20054;-66
2021/05/27 12:04:35;;;;;;;1.58;0.63;;;;;;;;;;5074549;28;20021;-65
2021/05/27 12:07:02;;;;;;;1.65;0.60;;;;;;;;;;5069437;28;20017;-65
2021/05/27 12:09:32;;;;;;;0.93;0.90;;;;;;;;;;5072949;28;20042;-63
2021/05/27 12:12:18;;;;;;;2.50;1.10;;;;;;;;;;5084119;28;20081;-64
2021/05/27 12:14:55;;;;;;;1.88;0.82;;;;;;;;;;5086910;28;20020;-64
2021/05/27 12:17:26;;;;;;;2.00;1.30;;;;;;;;;;5073267;28;20108;-64
2021/05/27 12:19:53;;;;;;;0.93;0.77;;;;;;;;;;5085966;28;20020;-65
2021/05/27 12:22:19;;;;;;;1.98;1.00;;;;;;;;;;5103599;28;20107;-65
2021/05/27 12:24:44;;;;;;;2.50;0.90;;;;;;;;;;5087968;28;20103;-65
2021/05/27 12:27:09;;;;;;;2.63;1.02;;;;;;;;;;5080516;28;20475;-65
2021/05/27 12:29:35;;;;;;;1.75;0.70;;;;;;;;;;5078146;28;20009;-65
2021/05/27 12:32:03;;;;;;;3.10;0.55;;;;;;;;;;5083979;28;20073;-65
2021/05/27 12:34:29;;;;;;;0.20;0.20;;;;;;;;;;5085297;28;20024;-65
2021/05/27 12:36:58;;;;;;;0.10;0.10;;;;;;;;;;5079492;28;20016;-66
2021/05/27 12:39:32;;;;;;;1.08;0.10;;;;;;;;;;5080609;28;20021;-65
2021/05/27 12:41:58;;;;;;;0.00;0.00;;;;;;;;;;5084658;28;20023;-66
2021/05/27 12:44:34;;;;;;;0.00;0.00;;;;;;;;;;5070589;28;20112;-63
2021/05/27 12:47:10;;;;;;;0.05;0.00;;;;;;;;;;5073464;28;20515;-63
2021/05/27 12:49:35;;;;;;;1.00;0.00;;;;;;;;;;5072256;28;20100;-63
2021/05/27 12:52:00;;;;;;;0.00;0.00;;;;;;;;;;5072904;28;20116;-64
2021/05/27 12:54:26;;;;;;;0.10;0.00;;;;;;;;;;5069551;28;20012;-63
2021/05/27 12:57:08;;;;;;;0.75;0.00;;;;;;;;;;5068755;28;20121;-64
2021/05/27 12:59:34;;;;;;;0.22;0.22;;;;;;;;;;5079011;28;20091;-64
2021/05/27 13:02:01;;;;;;;0.28;0.00;;;;;;;;;;5073763;28;20024;-64
2021/05/27 13:04:28;;;;;;;0.30;0.00;;;;;;;;;;5071889;28;20031;-64
2021/05/27 13:07:03;;;;;;;0.10;0.00;;;;;;;;;;5070675;28;20013;-63
2021/05/27 13:09:41;;;;;;;1.25;0.03;;;;;;;;;;5079533;28;20432;-65
2021/05/27 13:12:06;;;;;;;0.05;0.00;;;;;;;;;;5088819;28;20024;-65
2021/05/27 13:14:31;;;;;;;0.15;0.00;;;;;;;;;;5080533;28;20085;-65
2021/05/27 13:17:00;;;;;;;0.05;0.00;;;;;;;;;;5071775;28;20021;-66
2021/05/27 13:19:25;;;;;;;0.13;0.10;;;;;;;;;;5090078;28;20012;-65
2021/05/27 13:22:00;;;;;;;0.47;0.10;;;;;;;;;;5089692;28;20049;-66
2021/05/27 13:24:28;;;;;;;0.85;0.10;;;;;;;;;;5070787;28;20036;-66
2021/05/27 13:27:03;;;;;;;0.10;0.00;;;;;;;;;;5066999;28;20715;-64
2021/05/27 13:29:29;;;;;;;0.10;0.10;;;;;;;;;;5061466;28;20024;-63
2021/05/27 13:31:55;;;;;;;0.17;0.03;;;;;;;;;;5055764;28;20037;-63
2021/05/27 13:34:20;;;;;;;0.10;0.10;;;;;;;;;;5055019;28;20031;-64
2021/05/27 13:36:47;;;;;;;0.75;0.10;;;;;;;;;;5057099;28;20106;-63
2021/05/27 13:39:13;;;;;;;0.50;0.10;;;;;;;;;;5055902;28;20632;-63
2021/05/27 13:41:39;;;;;;;0.40;0.13;;;;;;;;;;5067589;28;20439;-64
2021/05/27 13:44:04;;;;;;;0.13;0.10;;;;;;;;;;5074719;28;20081;-64
2021/05/27 13:46:29;;;;;;;0.38;0.10;;;;;;;;;;5073111;28;20022;-64
2021/05/27 13:48:54;;;;;;;1.95;0.10;;;;;;;;;;5071754;28;20051;-64
2021/05/27 13:51:21;;;;;;;0.10;0.10;;;;;;;;;;5066247;28;20055;-64
2021/05/27 13:53:46;;;;;;;0.68;0.20;;;;;;;;;;5073325;28;20028;-64
2021/05/27 13:56:19;;;;;;;0.32;0.20;;;;;;;;;;5072757;28;20024;-64
2021/05/27 13:58:45;;;;;;;1.15;0.25;;;;;;;;;;5080253;28;20056;-65
2021/05/27 14:01:10;;;;;;;0.40;0.20;;;;;;;;;;5073574;28;20063;-66
2021/05/27 14:03:37;;;;;;;1.05;0.30;;;;;;;;;;5069104;28;20090;-65
2021/05/27 14:06:06;;;;;;;1.05;0.30;;;;;;;;;;5073153;28;20433;-65
2021/05/27 14:08:32;;;;;;;0.45;0.30;;;;;;;;;;5075163;28;20115;-65
2021/05/27 14:10:57;;;;;;;0.60;0.43;;;;;;;;;;5072112;28;20107;-65
2021/05/27 14:13:22;;;;;;;0.80;0.47;;;;;;;;;;5071094;28;20021;-64
2021/05/27 14:15:47;;;;;;;0.98;0.40;;;;;;;;;;5073805;28;20027;-65
2021/05/27 14:18:12;;;;;;;0.60;0.50;;;;;;;;;;5075247;28;20024;-66
2021/05/27 14:20:38;;;;;;;0.88;0.52;;;;;;;;;;5072805;28;20024;-65
2021/05/27 14:23:03;;;;;;;0.55;0.50;;;;;;;;;;5085005;28;20366;-65
2021/05/27 14:25:28;;;;;;;0.63;0.60;;;;;;;;;;5073752;28;20061;-65
2021/05/27 14:27:53;;;;;;;0.85;0.85;;;;;;;;;;5070819;28;20032;-65
2021/05/27 14:30:19;;;;;;;1.10;0.77;;;;;;;;;;5074961;28;20013;-65
2021/05/27 14:32:44;;;;;;;1.77;0.65;;;;;;;;;;5088808;28;20023;-65
2021/05/27 14:35:10;;;;;;;1.80;1.38;;;;;;;;;;5076880;28;20029;-65
2021/05/27 14:37:35;;;;;;;1.33;1.10;;;;;;;;;;5067883;28;20044;-65
2021/05/27 14:40:00;;;;;;;1.58;1.30;;;;;;;;;;5071012;28;20123;-65
2021/05/27 14:42:26;;;;;;;1.55;0.98;;;;;;;;;;5075000;28;20064;-66
2021/05/27 14:44:51;;;;;;;1.33;1.23;;;;;;;;;;5072007;28;20050;-65
2021/05/27 14:47:16;;;;;;;2.47;0.90;;;;;;;;;;5069647;28;20037;-65